createdAt,value
2018-10-19T00:01:29.907Z,34.45
2018-10-19T00:04:23.763Z,35.98
2018-10-19T00:07:17.177Z,33.50
2018-10-19T00:10:11.631Z,33.80
2018-10-19T00:13:05.564Z,33.58
2018-10-19T00:15:59.346Z,33.80
2018-10-19T00:18:53.606Z,33.23
2018-10-19T00:21:47.234Z,33.05
2018-10-19T00:24:40.248Z,33.70
2018-10-19T00:27:33.543Z,33.15
2018-10-19T00:30:26.855Z,33.75
2018-10-19T00:33:20.733Z,33.40
2018-10-19T00:36:14.133Z,33.30
2018-10-19T00:39:07.695Z,35.05
2018-10-19T00:42:01.017Z,35.80
2018-10-19T00:44:54.450Z,34.63
2018-10-19T00:47:47.775Z,35.23
2018-10-19T00:50:40.947Z,33.25
2018-10-19T00:53:34.655Z,35.00
2018-10-19T00:56:28.728Z,35.05
2018-10-19T00:59:22.275Z,34.00
2018-10-19T01:02:15.538Z,35.70
2018-10-19T01:05:08.997Z,37.28
2018-10-19T01:08:02.034Z,34.45
2018-10-19T01:10:56.102Z,36.35
2018-10-19T01:13:49.410Z,35.95
2018-10-19T01:16:42.778Z,35.52
2018-10-19T01:19:35.917Z,34.60
2018-10-19T01:22:29.439Z,32.67
2018-10-19T01:25:23.143Z,33.23
2018-10-19T01:28:17.179Z,34.10
2018-10-19T01:31:10.999Z,35.45
2018-10-19T01:34:07.476Z,34.55
2018-10-19T01:37:06.626Z,34.15
2018-10-19T01:40:00.031Z,36.23
2018-10-19T01:42:57.863Z,35.45
2018-10-19T01:46:13.853Z,34.27
2018-10-19T01:49:00.680Z,31.60
2018-10-19T01:51:57.994Z,31.50
2018-10-19T01:54:52.769Z,31.82
2018-10-19T01:57:46.892Z,31.82
2018-10-19T02:00:42.125Z,31.73
2018-10-19T02:03:37.179Z,31.85
2018-10-19T02:06:32.604Z,29.92
2018-10-19T02:09:29.076Z,29.20
2018-10-19T02:12:25.601Z,35.45
2018-10-19T02:15:21.831Z,35.70
2018-10-19T02:18:17.764Z,33.40
2018-10-19T02:21:14.431Z,33.85
2018-10-19T02:24:10.810Z,35.30
2018-10-19T02:27:07.508Z,33.25
2018-10-19T02:30:03.842Z,33.75
2018-10-19T02:32:59.963Z,37.38
2018-10-19T02:35:56.199Z,37.30
2018-10-19T02:38:52.745Z,39.35
2018-10-19T02:41:48.906Z,35.15
2018-10-19T02:44:45.516Z,37.95
2018-10-19T02:47:42.039Z,36.08
2018-10-19T02:50:38.870Z,36.70
2018-10-19T02:53:35.548Z,44.08
2018-10-19T02:56:31.860Z,36.70
2018-10-19T02:59:27.897Z,36.17
2018-10-19T03:02:27.430Z,36.30
2018-10-19T03:05:23.619Z,36.85
2018-10-19T03:08:20.043Z,38.15
2018-10-19T03:11:19.606Z,40.38
2018-10-19T03:14:15.846Z,39.70
2018-10-19T03:17:12.836Z,40.03
2018-10-19T03:20:10.043Z,39.92
2018-10-19T03:23:06.608Z,41.50
2018-10-19T03:26:02.756Z,41.95
2018-10-19T03:28:59.519Z,43.08
2018-10-19T03:31:55.772Z,41.20
2018-10-19T03:34:52.506Z,42.35
2018-10-19T03:37:48.682Z,44.53
2018-10-19T03:40:45.661Z,41.30
2018-10-19T03:43:41.723Z,41.75
2018-10-19T03:46:38.543Z,41.25
2018-10-19T03:49:34.829Z,45.23
2018-10-19T03:52:31.620Z,37.98
2018-10-19T03:55:27.856Z,37.20
2018-10-19T03:58:24.810Z,40.45
2018-10-19T04:01:21.081Z,38.65
2018-10-19T04:04:17.502Z,36.88
2018-10-19T04:07:13.778Z,39.40
2018-10-19T04:10:11.525Z,37.50
2018-10-19T04:13:06.925Z,36.60
2018-10-19T04:16:02.743Z,37.95
2018-10-19T04:18:59.266Z,35.45
2018-10-19T04:21:53.441Z,44.33
2018-10-19T04:24:49.355Z,41.10
2018-10-19T04:27:43.411Z,39.33
2018-10-19T04:30:38.083Z,37.03
2018-10-19T04:33:31.781Z,38.48
2018-10-19T04:36:24.829Z,35.50
2018-10-19T04:39:18.163Z,34.88
2018-10-19T04:42:11.509Z,36.68
2018-10-19T04:45:04.728Z,34.90
2018-10-19T04:47:58.165Z,35.68
2018-10-19T04:50:51.606Z,34.48
2018-10-19T04:53:44.887Z,36.23
2018-10-19T04:56:38.751Z,36.55
2018-10-19T04:59:32.643Z,36.83
2018-10-19T05:02:26.116Z,35.80
2018-10-19T05:05:19.746Z,35.20
2018-10-19T05:08:12.668Z,36.08
2018-10-19T05:11:06.446Z,36.38
2018-10-19T05:14:00.551Z,35.10
2018-10-19T05:16:54.141Z,34.78
2018-10-19T05:19:47.999Z,36.38
2018-10-19T05:22:45.138Z,38.05
2018-10-19T05:25:38.439Z,37.53
2018-10-19T05:28:32.376Z,37.00
2018-10-19T05:31:28.302Z,39.13
2018-10-19T05:34:23.404Z,35.88
2018-10-19T05:37:20.030Z,35.28
2018-10-19T05:40:15.855Z,36.30
2018-10-19T05:43:10.295Z,36.13
2018-10-19T05:46:04.767Z,35.38
2018-10-19T05:48:59.782Z,34.90
2018-10-19T05:51:54.216Z,34.80
2018-10-19T05:54:48.780Z,33.88
2018-10-19T05:57:44.337Z,32.70
2018-10-19T06:00:42.456Z,32.30
2018-10-19T06:03:37.669Z,32.50
2018-10-19T06:06:32.894Z,33.13
2018-10-19T06:09:27.664Z,32.90
2018-10-19T06:12:23.847Z,33.05
2018-10-19T06:15:18.739Z,29.12
2018-10-19T06:18:13.992Z,28.87
2018-10-19T06:21:09.258Z,31.23
2018-10-19T06:24:05.510Z,30.88
2018-10-19T06:26:55.819Z,32.03
2018-10-19T06:29:49.408Z,31.50
2018-10-19T06:32:42.861Z,31.97
2018-10-19T06:35:36.517Z,31.55
2018-10-19T06:38:31.277Z,31.12
2018-10-19T06:41:26.996Z,31.05
2018-10-19T06:44:22.157Z,31.05
2018-10-19T06:47:15.944Z,30.68
2018-10-19T06:50:13.255Z,30.57
2018-10-19T06:53:08.456Z,30.70
2018-10-19T06:56:04.151Z,31.52
2018-10-19T06:58:59.551Z,31.68
2018-10-19T07:01:55.797Z,32.23
2018-10-19T07:04:51.243Z,31.80
2018-10-19T07:07:46.375Z,31.55
2018-10-19T07:10:41.714Z,31.00
2018-10-19T07:13:37.666Z,31.42
2018-10-19T07:16:32.885Z,33.67
2018-10-19T07:19:28.677Z,29.25
2018-10-19T07:22:23.736Z,29.42
2018-10-19T07:25:19.842Z,30.10
2018-10-19T07:28:13.880Z,31.27
2018-10-19T07:31:09.744Z,30.95
2018-10-19T07:34:05.744Z,31.02
2018-10-19T07:37:01.102Z,31.25
2018-10-19T07:39:56.363Z,30.32
2018-10-19T07:42:51.861Z,31.93
2018-10-19T07:45:47.466Z,30.95
2018-10-19T07:48:42.540Z,31.87
2018-10-19T07:51:55.933Z,31.70
2018-10-19T07:54:51.830Z,30.65
2018-10-19T07:57:47.031Z,31.65
2018-10-19T08:00:40.302Z,28.73
2018-10-19T08:03:36.775Z,29.57
2018-10-19T08:06:31.099Z,30.37
2018-10-19T08:09:30.172Z,30.17
2018-10-19T08:12:21.119Z,31.20
2018-10-19T08:15:16.756Z,31.95
2018-10-19T08:18:12.260Z,31.87
2018-10-19T08:21:07.494Z,30.45
2018-10-19T08:24:02.860Z,31.60
2018-10-19T08:26:57.886Z,32.23
2018-10-19T08:29:52.605Z,30.32
2018-10-19T08:32:47.920Z,31.48
2018-10-19T08:35:44.963Z,32.42
2018-10-19T08:38:40.342Z,32.88
2018-10-19T08:41:35.952Z,33.25
2018-10-19T08:44:30.965Z,33.08
2018-10-19T08:47:25.960Z,34.25
2018-10-19T08:50:21.105Z,35.92
2018-10-19T08:53:16.167Z,33.75
2018-10-19T08:56:11.649Z,33.38
2018-10-19T08:59:06.869Z,33.70
2018-10-19T09:02:02.309Z,32.17
2018-10-19T09:04:58.479Z,31.93
2018-10-19T09:07:53.058Z,30.88
2018-10-19T09:13:42.630Z,31.52
2018-10-19T09:16:38.344Z,31.82
2018-10-19T09:19:32.742Z,30.23
2018-10-19T09:22:27.629Z,32.42
2018-10-19T09:25:21.836Z,30.75
2018-10-19T09:28:16.970Z,31.23
2018-10-19T09:31:11.242Z,29.98
2018-10-19T09:34:06.775Z,31.60
2018-10-19T09:37:01.825Z,31.97
2018-10-19T09:39:57.482Z,32.40
2018-10-19T09:42:52.738Z,31.60
2018-10-19T09:45:50.732Z,33.98
2018-10-19T09:48:45.302Z,34.10
2018-10-19T09:51:41.325Z,33.08
2018-10-19T09:54:36.120Z,31.87
2018-10-19T09:57:31.496Z,30.43
2018-10-19T10:00:45.690Z,33.48
2018-10-19T10:03:40.702Z,32.08
2018-10-19T10:06:34.858Z,32.95
2018-10-19T10:09:30.182Z,31.60
2018-10-19T10:12:26.091Z,31.07
2018-10-19T10:15:24.311Z,30.95
2018-10-19T10:18:19.575Z,30.72
2018-10-19T10:21:15.692Z,31.00
2018-10-19T10:24:11.177Z,31.50
2018-10-19T10:27:05.232Z,32.15
2018-10-19T10:29:59.129Z,30.82
2018-10-19T10:32:52.647Z,30.20
2018-10-19T10:35:46.294Z,30.17
2018-10-19T10:38:40.432Z,31.00
2018-10-19T10:41:35.989Z,31.90
2018-10-19T10:44:29.749Z,32.42
2018-10-19T10:47:23.376Z,33.00
2018-10-19T10:50:17.688Z,32.42
2018-10-19T10:53:11.754Z,32.55
2018-10-19T10:56:05.489Z,32.45
2018-10-19T10:58:59.717Z,33.90
2018-10-19T11:01:53.693Z,35.00
2018-10-19T11:04:46.801Z,34.70
2018-10-19T11:07:44.430Z,33.95
2018-10-19T11:10:39.227Z,35.70
2018-10-19T11:13:33.946Z,36.35
2018-10-19T11:16:28.538Z,36.08
2018-10-19T11:19:23.956Z,35.70
2018-10-19T11:22:21.680Z,35.48
2018-10-19T11:25:17.293Z,36.68
2018-10-19T11:28:12.582Z,36.58
2018-10-19T11:31:08.085Z,36.40
2018-10-19T11:34:03.894Z,47.58
2018-10-19T11:36:59.800Z,43.13
2018-10-19T11:40:35.130Z,40.33
2018-10-19T11:43:30.251Z,38.85
2018-10-19T11:46:25.760Z,39.38
2018-10-19T11:49:19.715Z,39.67
2018-10-19T11:52:15.341Z,38.15
2018-10-19T11:55:11.058Z,38.73
2018-10-19T11:58:07.895Z,40.92
2018-10-19T12:01:01.298Z,37.65
2018-10-19T12:03:55.388Z,37.75
2018-10-19T12:06:49.542Z,37.98
2018-10-19T12:09:45.953Z,40.00
2018-10-19T12:12:40.612Z,38.75
2018-10-19T12:15:34.215Z,40.70
2018-10-19T12:18:27.993Z,41.15
2018-10-19T12:21:21.813Z,45.98
2018-10-19T12:24:15.118Z,46.77
2018-10-19T12:27:09.910Z,47.95
2018-10-19T12:30:03.604Z,43.45
2018-10-19T12:32:57.414Z,43.48
2018-10-19T12:35:51.007Z,39.60
2018-10-19T12:38:44.095Z,42.03
2018-10-19T12:41:37.995Z,46.20
2018-10-19T12:44:31.314Z,43.92
2018-10-19T12:47:42.182Z,40.15
2018-10-19T12:50:37.461Z,39.65
2018-10-19T12:53:32.479Z,43.15
2018-10-19T12:56:27.669Z,43.68
2018-10-19T12:59:23.006Z,44.80
2018-10-19T13:02:18.401Z,52.13
2018-10-19T13:05:13.439Z,50.25
2018-10-19T13:08:09.458Z,51.02
2018-10-19T13:11:04.492Z,44.88
2018-10-19T13:14:01.080Z,48.70
2018-10-19T13:16:56.525Z,45.03
2018-10-19T13:19:52.188Z,46.00
2018-10-19T13:22:47.334Z,47.65
2018-10-19T13:25:42.102Z,50.48
2018-10-19T13:28:37.324Z,51.30
2018-10-19T13:31:32.881Z,48.92
2018-10-19T13:34:28.349Z,57.17
2018-10-19T13:37:23.563Z,68.87
2018-10-19T13:40:18.754Z,53.65
2018-10-19T13:43:14.751Z,57.35
2018-10-19T13:46:11.005Z,48.83
2018-10-19T13:49:06.164Z,54.80
2018-10-19T13:52:00.757Z,47.85
2018-10-19T13:54:55.062Z,47.60
2018-10-19T13:57:49.431Z,49.73
2018-10-19T14:00:44.377Z,47.83
2018-10-19T14:03:39.959Z,49.53
2018-10-19T14:06:35.146Z,48.38
2018-10-19T14:09:31.278Z,50.17
2018-10-19T14:12:26.680Z,50.00
2018-10-19T14:15:21.606Z,47.90
2018-10-19T14:18:17.383Z,49.60
2018-10-19T14:21:12.421Z,48.90
2018-10-19T14:24:07.764Z,55.83
2018-10-19T14:27:03.010Z,57.30
2018-10-19T14:29:57.748Z,62.43
2018-10-19T14:32:53.473Z,59.30
2018-10-19T14:35:48.577Z,54.98
2018-10-19T14:38:43.747Z,56.45
2018-10-19T14:41:38.988Z,58.83
2018-10-19T14:44:34.196Z,70.47
2018-10-19T14:47:29.069Z,57.20
2018-10-19T14:50:24.111Z,56.95
2018-10-19T14:53:22.416Z,56.25
2018-10-19T14:56:18.023Z,54.38
2018-10-19T14:59:13.553Z,49.73
2018-10-19T15:02:12.254Z,148.35
2018-10-19T15:05:04.424Z,64.42
2018-10-19T15:10:55.246Z,51.25
2018-10-19T15:13:50.133Z,45.10
2018-10-19T15:16:43.910Z,46.37
2018-10-19T15:19:37.234Z,46.88
2018-10-19T15:22:30.631Z,49.80
2018-10-19T15:25:24.297Z,46.80
2018-10-19T15:28:21.800Z,45.88
2018-10-19T15:31:17.137Z,46.40
2018-10-19T15:34:12.347Z,44.98
2018-10-19T15:37:07.152Z,43.90
2018-10-19T15:40:02.857Z,45.83
2018-10-19T15:43:02.313Z,42.60
2018-10-19T15:45:57.884Z,44.35
2018-10-19T15:48:53.290Z,46.05
2018-10-19T15:51:47.830Z,46.35
2018-10-19T15:54:46.180Z,45.73
2018-10-19T15:57:41.552Z,46.83
2018-10-19T16:00:37.938Z,46.25
2018-10-19T16:03:33.689Z,50.00
2018-10-19T16:06:31.982Z,45.63
2018-10-19T16:09:23.717Z,47.45
2018-10-19T16:12:18.208Z,51.45
2018-10-19T16:15:14.444Z,52.85
2018-10-19T16:18:09.546Z,55.85
2018-10-19T16:21:04.887Z,52.43
2018-10-19T16:23:58.897Z,56.88
2018-10-19T16:26:54.151Z,54.63
2018-10-19T16:29:49.936Z,54.77
2018-10-19T16:32:46.256Z,64.07
2018-10-19T16:35:39.860Z,58.23
2018-10-19T16:38:37.174Z,60.10
2018-10-19T16:41:31.658Z,57.45
2018-10-19T16:44:26.344Z,58.13
2018-10-19T16:47:21.330Z,59.65
2018-10-19T16:50:17.050Z,56.53
2018-10-19T16:53:11.864Z,57.15
2018-10-19T16:56:07.199Z,57.25
2018-10-19T16:59:02.610Z,60.55
2018-10-19T17:01:58.941Z,60.43
2018-10-19T17:04:54.898Z,61.68
2018-10-19T17:07:50.250Z,64.00
2018-10-19T17:10:45.442Z,65.78
2018-10-19T17:13:40.294Z,65.83
2018-10-19T17:16:35.870Z,65.40
2018-10-19T17:19:30.846Z,62.50
2018-10-19T17:22:26.562Z,63.50
2018-10-19T17:25:22.202Z,64.25
2018-10-19T17:28:17.393Z,66.42
2018-10-19T17:31:12.018Z,67.87
2018-10-19T17:34:08.615Z,74.25
2018-10-19T17:37:03.921Z,67.08
2018-10-19T17:39:57.924Z,50.17
2018-10-19T17:42:55.846Z,51.45
2018-10-19T17:45:50.942Z,50.30
2018-10-19T17:48:46.304Z,48.38
2018-10-19T17:51:41.582Z,48.30
2018-10-19T17:54:36.781Z,45.28
2018-10-19T17:57:32.606Z,44.80
2018-10-19T18:00:27.990Z,44.63
2018-10-19T18:03:23.088Z,44.42
2018-10-19T18:06:18.401Z,42.88
2018-10-19T18:09:17.361Z,42.13
2018-10-19T18:12:13.560Z,42.58
2018-10-19T18:15:08.399Z,48.80
2018-10-19T18:18:02.859Z,44.03
2018-10-19T18:20:57.178Z,41.70
2018-10-19T18:23:52.205Z,43.78
2018-10-19T18:26:47.990Z,45.05
2018-10-19T18:29:42.552Z,45.48
2018-10-19T18:32:37.979Z,45.60
2018-10-19T18:35:33.338Z,43.40
2018-10-19T18:38:28.929Z,45.65
2018-10-19T18:41:27.638Z,44.93
2018-10-19T18:44:22.782Z,44.95
2018-10-19T18:47:18.020Z,44.70
2018-10-19T18:50:19.644Z,45.05
2018-10-19T18:53:14.903Z,44.90
2018-10-19T18:56:10.061Z,48.58
2018-10-19T18:59:05.916Z,47.30
2018-10-19T19:02:01.378Z,46.90
2018-10-19T19:04:56.540Z,47.48
2018-10-19T19:07:51.578Z,46.30
2018-10-19T19:10:46.496Z,48.55
2018-10-19T19:13:52.198Z,48.45
2018-10-19T19:16:47.707Z,49.15
2018-10-19T19:19:42.753Z,49.70
2018-10-19T19:22:41.038Z,48.83
2018-10-19T19:25:52.835Z,50.23
2018-10-19T19:28:48.657Z,48.98
2018-10-19T19:31:43.974Z,51.05
2018-10-19T19:34:39.499Z,52.58
2018-10-19T19:37:34.429Z,51.00
2018-10-19T19:40:29.827Z,48.65
2018-10-19T19:43:25.478Z,47.53
2018-10-19T19:46:20.113Z,48.90
2018-10-19T19:49:31.576Z,48.98
2018-10-19T19:52:25.805Z,47.67
2018-10-19T19:55:20.265Z,48.80
2018-10-19T19:58:15.059Z,49.05
2018-10-19T20:01:10.469Z,49.65
2018-10-19T20:04:04.742Z,48.78
2018-10-19T20:06:59.310Z,49.90
2018-10-19T20:09:54.404Z,53.48
2018-10-19T20:12:48.223Z,53.20
2018-10-19T20:15:43.642Z,53.20
2018-10-19T20:18:39.464Z,54.42
2018-10-19T20:21:34.393Z,54.25
2018-10-19T20:24:28.915Z,56.00
2018-10-19T20:27:22.918Z,56.00
2018-10-19T20:30:17.675Z,55.88
2018-10-19T20:33:11.417Z,55.50
2018-10-19T20:36:05.919Z,54.58
2018-10-19T20:39:00.264Z,53.17
2018-10-19T20:41:54.919Z,54.85
2018-10-19T20:44:48.570Z,56.28
2018-10-19T20:47:44.136Z,53.00
2018-10-19T20:50:38.969Z,55.98
2018-10-19T20:53:37.215Z,53.98
2018-10-19T20:56:27.900Z,55.60
2018-10-19T20:59:23.343Z,55.38
2018-10-19T21:02:18.635Z,53.90
2018-10-19T21:05:15.129Z,53.98
2018-10-19T21:08:10.203Z,54.45
2018-10-19T21:11:04.619Z,55.10
2018-10-19T21:14:00.936Z,53.73
2018-10-19T21:16:56.124Z,54.30
2018-10-19T21:19:50.104Z,54.63
2018-10-19T21:22:44.954Z,54.50
2018-10-19T21:25:40.447Z,54.33
2018-10-19T21:28:35.595Z,55.43
2018-10-19T21:31:30.702Z,54.60
2018-10-19T21:34:25.944Z,53.80
2018-10-19T21:37:19.997Z,55.20
2018-10-19T21:40:18.518Z,55.63
2018-10-19T21:43:09.368Z,55.05
2018-10-19T21:46:03.232Z,55.05
2018-10-19T21:48:57.145Z,54.95
2018-10-19T21:51:51.856Z,54.77
2018-10-19T21:54:45.164Z,54.42
2018-10-19T21:57:40.055Z,53.10
2018-10-19T22:00:38.268Z,53.50
2018-10-19T22:03:34.002Z,54.25
2018-10-19T22:06:28.360Z,52.17
2018-10-19T22:09:26.285Z,53.73
2018-10-19T22:12:24.242Z,53.10
2018-10-19T22:15:18.996Z,52.58
2018-10-19T22:18:13.240Z,52.53
2018-10-19T22:21:08.925Z,53.35
2018-10-19T22:24:03.539Z,54.35
2018-10-19T22:26:57.712Z,52.43
2018-10-19T22:29:52.287Z,55.20
2018-10-19T22:32:47.730Z,52.93
2018-10-19T22:35:42.954Z,52.62
2018-10-19T22:38:38.114Z,54.42
2018-10-19T22:41:31.583Z,55.85
2018-10-19T22:44:25.575Z,53.90
2018-10-19T22:47:20.244Z,51.53
2018-10-19T22:50:14.173Z,51.35
2018-10-19T22:53:11.971Z,53.20
2018-10-19T22:56:07.828Z,53.40
2018-10-19T22:59:02.868Z,52.13
2018-10-19T23:01:58.426Z,53.52
2018-10-19T23:04:53.493Z,52.35
2018-10-19T23:07:48.446Z,53.48
2018-10-19T23:10:43.196Z,54.30
2018-10-19T23:13:37.455Z,54.15
2018-10-19T23:16:33.207Z,53.68
2018-10-19T23:19:28.318Z,52.90
2018-10-19T23:22:27.339Z,55.10
2018-10-19T23:25:22.049Z,53.40
2018-10-19T23:28:16.204Z,53.73
2018-10-19T23:31:11.186Z,54.03
2018-10-19T23:34:05.701Z,55.25
2018-10-19T23:36:59.953Z,54.03
2018-10-19T23:39:54.454Z,54.08
2018-10-19T23:42:48.061Z,54.75
2018-10-19T23:45:42.064Z,55.88
2018-10-19T23:48:35.615Z,55.78
2018-10-19T23:51:29.421Z,54.20
2018-10-19T23:54:23.606Z,56.23
2018-10-19T23:57:16.686Z,55.38
